Time;durP1;ratioP1;P1;durP2;ratioP2;P2;SDS_P1;SDS_P2;PMS_P1;PMS_P2;Temp;Humidity;BMP_temperature;BMP_pressure;BME280_temperature;BME280_humidity;BME280_pressure;Samples;Min_cycle;Max_cycle;Signal;HPM_P1;HPM_P2
2022/09/15 00:01:59;;;;;;;11.38;6.15;;;;;;;18.80;72.21;94888.44;5047411;28;20210;-69
2022/09/15 00:04:26;;;;;;;10.63;5.60;;;;;;;18.69;72.83;94878.03;5047289;28;20325;-70
2022/09/15 00:06:52;;;;;;;6.10;5.53;;;;;;;18.39;74.36;94891.19;5047921;28;20223;-69
2022/09/15 00:09:19;;;;;;;6.78;5.45;;;;;;;18.60;73.59;94888.94;5047316;28;20199;-70
2022/09/15 00:11:47;;;;;;;7.40;5.13;;;;;;;18.91;72.16;94888.50;5047323;28;20199;-67
2022/09/15 00:14:15;;;;;;;42.45;27.77;;;;;;;19.06;72.22;94883.22;5046635;28;20241;-69
2022/09/15 00:16:42;;;;;;;18.05;12.45;;;;;;;18.68;72.83;94886.69;5034706;28;20196;-68
2022/09/15 00:19:09;;;;;;;8.70;6.10;;;;;;;18.76;72.24;94894.72;5032448;28;20204;-66
2022/09/15 00:21:38;;;;;;;7.15;5.80;;;;;;;18.77;71.85;94898.94;5032659;28;20265;-68
2022/09/15 00:24:06;;;;;;;9.68;5.40;;;;;;;18.73;71.97;94892.34;5033135;28;20223;-67
2022/09/15 00:26:33;;;;;;;10.88;5.68;;;;;;;18.26;73.87;94892.94;5033556;28;20199;-67
2022/09/15 00:29:00;;;;;;;8.95;6.00;;;;;;;18.18;74.33;94890.88;5033272;28;20266;-68
2022/09/15 00:31:31;;;;;;;9.00;5.90;;;;;;;18.20;74.22;94894.16;5033082;28;20670;-67
2022/09/15 00:34:01;;;;;;;6.78;6.13;;;;;;;18.19;74.20;94879.66;5032465;28;20258;-67
2022/09/15 00:36:28;;;;;;;7.03;5.78;;;;;;;18.19;74.07;94889.94;5031797;28;20202;-67
2022/09/15 00:38:56;;;;;;;8.15;5.72;;;;;;;18.41;73.41;94888.50;5029940;28;20196;-65
2022/09/15 00:41:24;;;;;;;10.85;5.93;;;;;;;18.40;73.08;94887.69;5029528;28;20199;-66
2022/09/15 00:43:53;;;;;;;7.68;6.03;;;;;;;18.27;73.80;94889.44;5029437;28;20195;-67
2022/09/15 00:46:21;;;;;;;6.30;5.90;;;;;;;18.24;73.52;94895.63;5029232;28;20200;-65
2022/09/15 00:48:54;;;;;;;8.95;5.43;;;;;;;18.24;73.53;94895.63;5029200;28;20204;-67
2022/09/15 00:51:25;;;;;;;6.97;5.25;;;;;;;18.22;73.34;94900.03;5030928;28;20290;-67
2022/09/15 00:53:53;;;;;;;13.27;5.30;;;;;;;17.89;74.10;94895.34;5032365;28;20200;-67
2022/09/15 00:56:21;;;;;;;7.35;5.15;;;;;;;17.97;73.34;94887.13;5033746;28;20200;-67
2022/09/15 00:58:54;;;;;;;7.35;4.95;;;;;;;18.00;72.44;94892.06;5033539;28;20200;-68
2022/09/15 01:01:22;;;;;;;11.18;4.57;;;;;;;18.04;71.62;94883.25;5031932;28;20617;-67
2022/09/15 01:03:50;;;;;;;6.65;5.05;;;;;;;18.05;71.48;94884.91;5033120;28;20239;-68
2022/09/15 01:06:24;;;;;;;6.80;4.72;;;;;;;17.96;71.55;94885.47;5032913;28;20612;-67
2022/09/15 01:08:56;;;;;;;10.20;5.10;;;;;;;17.46;74.29;94889.53;5033189;28;20685;-67
2022/09/15 01:11:23;;;;;;;13.98;5.28;;;;;;;17.31;75.55;94882.78;5033367;28;20200;-68
2022/09/15 01:13:50;;;;;;;12.10;5.70;;;;;;;17.40;75.17;94884.75;5033283;28;20229;-68
2022/09/15 01:16:42;;;;;;;8.70;5.57;;;;;;;17.55;74.75;94883.81;5033000;28;20253;-68
2022/09/15 01:19:31;;;;;;;5.70;4.88;;;;;;;17.04;76.48;94887.06;5032647;28;20204;-66
2022/09/15 01:22:08;;;;;;;11.02;5.78;;;;;;;16.98;77.61;94883.13;5032867;28;20199;-68
2022/09/15 01:24:44;;;;;;;9.43;6.25;;;;;;;16.85;77.58;94890.75;5032676;28;20227;-68
2022/09/15 01:27:21;;;;;;;6.65;5.95;;;;;;;16.82;78.31;94877.28;5031762;28;20203;-68
2022/09/15 01:30:02;;;;;;;11.77;6.38;;;;;;;16.81;78.18;94884.16;5032847;28;20195;-67
2022/09/15 01:35:30;;;;;;;17.85;9.95;;;;;;;16.42;80.53;94878.81;5032541;28;20195;-69
2022/09/15 01:38:03;;;;;;;22.00;12.55;;;;;;;16.33;80.93;94875.84;5033207;28;20291;-68
2022/09/15 01:40:35;;;;;;;21.25;12.10;;;;;;;16.45;80.05;94882.03;5032539;28;20207;-67
2022/09/15 01:43:04;;;;;;;19.60;11.80;;;;;;;16.62;80.07;94878.44;5032881;28;20227;-67
2022/09/15 01:45:34;;;;;;;16.63;10.38;;;;;;;16.87;79.27;94883.78;5032602;28;20779;-67
2022/09/15 01:48:04;;;;;;;17.85;10.43;;;;;;;16.95;78.45;94881.56;5032230;28;20199;-68
2022/09/15 01:50:35;;;;;;;21.17;9.95;;;;;;;17.18;77.59;94880.16;5032719;28;20633;-66
2022/09/15 01:53:08;;;;;;;15.50;9.43;;;;;;;17.48;75.75;94879.97;5032473;28;20211;-68
2022/09/15 01:55:39;;;;;;;16.48;9.38;;;;;;;17.39;76.34;94877.16;5033018;28;20192;-68
2022/09/15 01:58:07;;;;;;;17.40;10.00;;;;;;;16.98;78.19;94873.69;5032463;28;20200;-68
2022/09/15 02:00:38;;;;;;;14.70;9.25;;;;;;;16.73;79.41;94888.94;5032028;28;20654;-67
2022/09/15 02:03:16;;;;;;;18.10;10.48;;;;;;;16.58;80.04;94870.09;5032109;28;20196;-68
2022/09/15 02:05:48;;;;;;;17.95;9.65;;;;;;;16.67;79.85;94868.75;5031610;28;20228;-68
2022/09/15 02:08:23;;;;;;;18.90;9.82;;;;;;;16.99;78.48;94865.06;5031931;28;20678;-69
2022/09/15 02:10:57;;;;;;;15.45;9.95;;;;;;;16.87;79.10;94865.81;5032410;28;20276;-68
2022/09/15 02:13:33;;;;;;;14.63;9.50;;;;;;;17.16;77.98;94865.75;5032095;28;20629;-67
2022/09/15 02:16:03;;;;;;;15.55;10.27;;;;;;;17.00;78.52;94874.41;5031782;28;20226;-69
2022/09/15 02:18:44;;;;;;;13.15;8.65;;;;;;;17.21;77.96;94884.28;5031802;28;20204;-68
2022/09/15 02:21:15;;;;;;;14.32;10.52;;;;;;;17.35;76.69;94873.94;5032519;28;20199;-69
2022/09/15 02:23:46;;;;;;;18.70;9.77;;;;;;;17.13;77.67;94879.59;5031222;28;20203;-68
2022/09/15 02:26:18;;;;;;;19.88;9.57;;;;;;;16.99;78.68;94874.50;5031923;28;20223;-68
2022/09/15 02:28:46;;;;;;;18.38;9.82;;;;;;;17.32;77.50;94864.69;5031730;28;20696;-69
2022/09/15 02:31:17;;;;;;;14.68;9.95;;;;;;;17.15;77.88;94861.53;5032223;28;20221;-67
2022/09/15 02:33:49;;;;;;;16.17;9.50;;;;;;;17.08;78.13;94867.97;5031862;28;20254;-68
2022/09/15 02:36:19;;;;;;;23.98;10.38;;;;;;;16.87;79.40;94875.25;5032092;28;20192;-67
2022/09/15 02:38:52;;;;;;;20.88;10.85;;;;;;;16.90;79.02;94865.63;5031448;28;20196;-68
2022/09/15 02:41:18;;;;;;;17.75;10.57;;;;;;;16.61;80.73;94858.84;5031535;28;20199;-65
2022/09/15 02:43:46;;;;;;;11.60;9.55;;;;;;;16.67;80.62;94868.75;5031016;28;20767;-69
2022/09/15 02:46:13;;;;;;;16.95;10.00;;;;;;;16.84;79.79;94872.84;5031328;28;20220;-68
2022/09/15 02:48:41;;;;;;;19.85;9.77;;;;;;;16.88;79.38;94876.91;5031661;28;20199;-70
2022/09/15 02:51:07;;;;;;;13.30;10.07;;;;;;;17.00;78.75;94866.72;5031398;28;20260;-69
2022/09/15 02:53:35;;;;;;;18.95;9.13;;;;;;;16.82;79.22;94867.84;5031813;28;20277;-69
2022/09/15 02:56:03;;;;;;;17.10;10.00;;;;;;;16.42;80.69;94863.41;5031201;28;20286;-68
2022/09/15 02:58:30;;;;;;;15.30;9.32;;;;;;;16.43;81.61;94862.50;5031118;28;20200;-69
2022/09/15 03:00:57;;;;;;;18.13;9.70;;;;;;;16.67;80.75;94864.44;5030962;28;20200;-68
2022/09/15 03:03:23;;;;;;;10.40;8.85;;;;;;;16.75;80.55;94858.88;5030951;28;20204;-69
2022/09/15 03:05:51;;;;;;;19.48;9.52;;;;;;;16.87;79.42;94865.81;5031964;28;20228;-69
2022/09/15 03:08:18;;;;;;;13.82;9.73;;;;;;;16.60;80.43;94870.00;5031510;28;20239;-70
2022/09/15 03:10:45;;;;;;;15.98;9.88;;;;;;;16.37;82.15;94866.25;5031963;28;20242;-69
2022/09/15 03:13:12;;;;;;;17.50;10.13;;;;;;;16.65;80.61;94883.41;5031165;28;20188;-69
2022/09/15 03:15:38;;;;;;;17.63;9.23;;;;;;;16.58;81.03;94889.81;5031357;28;20557;-69
2022/09/15 03:18:05;;;;;;;15.65;9.05;;;;;;;16.48;81.36;94886.16;5032110;28;20199;-68
2022/09/15 03:20:32;;;;;;;16.80;10.48;;;;;;;16.54;81.34;94886.63;5031610;28;20195;-69
2022/09/15 03:23:02;;;;;;;16.73;9.20;;;;;;;16.65;80.56;94901.38;5031207;28;20200;-68
2022/09/15 03:25:28;;;;;;;13.40;8.85;;;;;;;16.62;80.83;94898.97;5031121;28;20219;-68
2022/09/15 03:27:55;;;;;;;16.23;8.55;;;;;;;16.65;80.98;94901.38;5031524;28;20203;-70
2022/09/15 03:30:22;;;;;;;12.45;8.15;;;;;;;16.84;80.20;94901.91;5031004;28;20204;-69
2022/09/15 03:32:49;;;;;;;12.40;9.07;;;;;;;16.65;80.51;94902.22;5031111;28;20729;-70
2022/09/15 03:35:16;;;;;;;12.50;8.48;;;;;;;16.59;80.58;94891.44;5030996;28;20732;-68
2022/09/15 03:37:42;;;;;;;14.60;9.80;;;;;;;16.73;80.32;94898.38;5031225;28;20204;-69
2022/09/15 03:40:11;;;;;;;15.20;9.00;;;;;;;16.85;79.45;94900.19;5030633;28;20200;-69
2022/09/15 03:42:37;;;;;;;12.05;9.02;;;;;;;17.03;78.95;94905.97;5030658;28;20208;-69
2022/09/15 03:45:05;;;;;;;13.82;9.30;;;;;;;17.12;78.35;94898.50;5031076;28;20228;-69
2022/09/15 03:47:32;;;;;;;16.33;9.45;;;;;;;17.01;78.82;94890.66;5030704;28;20680;-68
2022/09/15 03:49:58;;;;;;;14.25;9.05;;;;;;;16.87;79.84;94886.34;5030740;28;20287;-70
2022/09/15 03:52:26;;;;;;;13.50;9.27;;;;;;;16.78;79.66;94886.91;5035028;28;20199;-70
2022/09/15 03:54:52;;;;;;;13.98;9.55;;;;;;;16.79;80.19;94887.75;5034620;28;20203;-69
2022/09/15 03:57:20;;;;;;;12.93;9.20;;;;;;;16.62;80.71;94886.13;5034643;28;20203;-69
2022/09/15 03:59:47;;;;;;;17.10;10.18;;;;;;;16.20;82.43;94885.19;5034567;28;20200;-69
2022/09/15 04:02:14;;;;;;;14.00;9.30;;;;;;;16.20;82.46;94885.19;5034313;28;20200;-68
2022/09/15 04:04:41;;;;;;;15.63;9.40;;;;;;;16.37;81.86;94880.81;5034339;28;20231;-69
2022/09/15 04:07:08;;;;;;;18.17;8.98;;;;;;;16.43;81.69;94888.16;5034278;28;20261;-67
2022/09/15 04:09:36;;;;;;;14.00;9.45;;;;;;;16.48;81.34;94894.66;5034755;28;20274;-67
2022/09/15 04:12:03;;;;;;;13.98;10.10;;;;;;;16.40;81.24;94890.91;5034295;28;20328;-68
2022/09/15 04:14:31;;;;;;;13.55;9.23;;;;;;;16.46;81.08;94890.53;5034092;28;20253;-69
2022/09/15 04:16:57;;;;;;;14.88;9.88;;;;;;;16.44;81.16;94882.09;5034623;28;20195;-71
2022/09/15 04:19:24;;;;;;;10.13;8.70;;;;;;;16.69;80.24;94892.59;5033969;28;20199;-68
2022/09/15 04:21:51;;;;;;;13.77;9.65;;;;;;;16.63;80.23;94880.09;5034500;28;20277;-67
2022/09/15 04:24:18;;;;;;;20.67;10.48;;;;;;;16.51;80.67;94880.84;5034538;28;20199;-68
2022/09/15 04:26:45;;;;;;;14.95;10.80;;;;;;;16.36;81.34;94885.13;5034054;28;20219;-68
2022/09/15 04:29:13;;;;;;;22.45;9.75;;;;;;;16.46;81.12;94896.50;5034486;28;20203;-68
2022/09/15 04:31:42;;;;;;;35.83;22.08;;;;;;;16.31;81.79;94893.09;5034054;28;20639;-68
2022/09/15 04:34:09;;;;;;;35.80;21.27;;;;;;;16.55;80.98;94887.44;5033956;28;20222;-69
2022/09/15 04:36:35;;;;;;;23.85;16.27;;;;;;;16.60;80.68;94887.97;5033195;28;20196;-69
2022/09/15 04:39:02;;;;;;;88.00;50.28;;;;;;;16.53;80.96;94889.28;5033628;28;20735;-69
2022/09/15 04:41:29;;;;;;;74.00;38.83;;;;;;;16.60;80.30;94893.09;5033451;28;20203;-70
2022/09/15 04:43:56;;;;;;;21.73;13.07;;;;;;;16.54;80.50;94896.06;5033483;28;20673;-69
2022/09/15 04:46:23;;;;;;;23.90;10.98;;;;;;;16.69;80.25;94892.59;5033322;28;20677;-68
2022/09/15 04:48:51;;;;;;;13.88;10.05;;;;;;;17.06;78.60;94891.19;5033838;28;20230;-70
2022/09/15 04:51:20;;;;;;;12.88;8.98;;;;;;;17.33;77.31;94889.44;5033960;28;20199;-66
2022/09/15 04:53:47;;;;;;;24.33;10.35;;;;;;;17.35;77.43;94891.94;5033850;28;20203;-68
2022/09/15 04:56:17;;;;;;;13.07;10.15;;;;;;;17.61;76.22;94892.84;5033038;28;20254;-67
2022/09/15 04:58:46;;;;;;;17.58;10.02;;;;;;;17.85;75.26;94891.31;5033220;28;20290;-69
2022/09/15 05:01:15;;;;;;;23.30;11.18;;;;;;;18.11;74.58;94896.50;5033097;28;20200;-68
2022/09/15 05:03:43;;;;;;;22.40;10.65;;;;;;;18.01;75.08;94888.59;5033228;28;20293;-66
2022/09/15 05:06:13;;;;;;;22.80;11.95;;;;;;;18.19;74.28;94889.94;5033153;28;20263;-68
2022/09/15 05:08:40;;;;;;;45.75;17.98;;;;;;;18.41;73.04;94893.66;5033336;28;20570;-68
2022/09/15 05:11:09;;;;;;;19.00;12.48;;;;;;;18.61;69.17;94890.59;5033376;28;20277;-68
2022/09/15 05:13:37;;;;;;;32.70;13.88;;;;;;;18.33;72.23;94886.44;5032660;28;20673;-68
2022/09/15 05:16:05;;;;;;;46.53;17.55;;;;;;;18.53;72.52;94891.09;5033366;28;20195;-68
2022/09/15 05:18:32;;;;;;;25.42;11.73;;;;;;;19.17;70.29;94878.97;5032744;28;20265;-68
2022/09/15 05:21:00;;;;;;;27.85;10.35;;;;;;;19.84;65.79;94870.78;5033050;28;20211;-68
2022/09/15 05:23:28;;;;;;;37.78;16.33;;;;;;;20.01;65.34;94870.38;5032953;28;20269;-67
2022/09/15 05:25:56;;;;;;;24.98;12.32;;;;;;;20.63;64.77;94877.78;5032849;28;20227;-67
2022/09/15 05:28:23;;;;;;;38.95;13.50;;;;;;;21.90;60.50;94868.66;5032292;28;20210;-68
2022/09/15 05:30:50;;;;;;;52.85;20.40;;;;;;;22.35;59.19;94875.25;5032853;28;20210;-69
2022/09/15 05:33:17;;;;;;;27.40;10.13;;;;;;;23.79;53.66;94860.34;5033285;28;20196;-70
2022/09/15 05:35:50;;;;;;;33.13;12.77;;;;;;;24.99;50.79;94863.19;5032777;28;20254;-68
2022/09/15 05:38:17;;;;;;;29.80;15.77;;;;;;;26.13;47.65;94853.16;5032799;28;20196;-69
2022/09/15 05:40:45;;;;;;;30.20;16.55;;;;;;;26.65;45.34;94849.63;5032906;28;20254;-67
2022/09/15 05:43:12;;;;;;;28.73;13.88;;;;;;;27.03;44.28;94843.16;5032624;28;20265;-69
2022/09/15 05:45:41;;;;;;;16.45;8.80;;;;;;;28.38;42.47;94835.13;5032574;28;20237;-70
2022/09/15 05:48:08;;;;;;;14.82;6.97;;;;;;;29.04;39.47;94826.94;5032276;28;20211;-68
2022/09/15 05:50:35;;;;;;;15.93;7.45;;;;;;;29.12;39.75;94820.88;5032321;28;20265;-69
2022/09/15 05:53:02;;;;;;;15.30;8.23;;;;;;;28.88;39.13;94829.63;5033224;28;20767;-69
2022/09/15 05:55:29;;;;;;;14.70;8.27;;;;;;;29.16;38.00;94813.50;5035368;28;20200;-67
2022/09/15 05:57:57;;;;;;;15.32;6.85;;;;;;;27.90;40.62;94815.84;5032359;28;20291;-67
2022/09/15 06:00:24;;;;;;;15.55;7.75;;;;;;;28.08;41.08;94826.94;5031696;28;20664;-70
2022/09/15 06:02:51;;;;;;;28.30;16.13;;;;;;;28.01;41.13;94822.50;5032613;28;20206;-71
2022/09/15 06:05:18;;;;;;;21.13;12.23;;;;;;;28.08;41.31;94833.94;5032719;28;20231;-69
2022/09/15 06:07:45;;;;;;;19.38;7.55;;;;;;;29.04;39.30;94828.75;5047519;28;20203;-69
2022/09/15 06:10:11;;;;;;;10.88;6.32;;;;;;;28.72;38.27;94832.25;5031573;28;20204;-69
2022/09/15 06:12:38;;;;;;;17.77;7.25;;;;;;;29.10;37.59;94821.03;5031962;28;20261;-68
2022/09/15 06:15:07;;;;;;;9.00;7.13;;;;;;;29.09;37.32;94835.13;5031535;28;20204;-69
2022/09/15 06:17:34;;;;;;;12.75;7.47;;;;;;;29.38;37.71;94839.72;5032311;28;20639;-69
2022/09/15 06:20:00;;;;;;;15.32;8.75;;;;;;;30.40;36.48;94825.47;5031979;28;20199;-69
2022/09/15 06:22:28;;;;;;;18.73;8.13;;;;;;;31.66;33.85;94825.38;5031655;28;20199;-70
2022/09/15 06:24:54;;;;;;;15.38;7.95;;;;;;;32.63;32.57;94819.53;5032028;28;20204;-69
2022/09/15 06:27:21;;;;;;;20.38;8.30;;;;;;;33.05;30.89;94821.22;5031571;28;20231;-70
2022/09/15 06:29:48;;;;;;;14.30;7.68;;;;;;;32.63;32.14;94822.16;5031589;28;20195;-69
2022/09/15 06:32:16;;;;;;;11.75;7.18;;;;;;;32.84;31.71;94816.03;5031726;28;20681;-68
2022/09/15 06:34:43;;;;;;;17.70;8.27;;;;;;;33.73;30.86;94820.28;5032140;28;20196;-70
2022/09/15 06:37:10;;;;;;;9.23;7.13;;;;;;;33.72;30.03;94810.75;5031879;28;20188;-70
2022/09/15 06:39:37;;;;;;;10.27;6.65;;;;;;;33.87;29.68;94802.69;5031721;28;20202;-69
2022/09/15 06:42:04;;;;;;;16.33;7.15;;;;;;;33.85;29.35;94820.53;5031190;28;20246;-69
2022/09/15 06:44:31;;;;;;;10.65;6.72;;;;;;;35.40;27.45;94827.94;5031993;28;20195;-68
2022/09/15 06:46:58;;;;;;;13.55;6.20;;;;;;;36.57;26.18;94816.03;5031637;28;20297;-69
2022/09/15 06:49:26;;;;;;;13.00;6.60;;;;;;;35.66;26.67;94809.28;5032283;28;20207;-67
2022/09/15 06:51:53;;;;;;;12.43;6.25;;;;;;;35.77;27.12;94813.94;5031561;28;20207;-70
2022/09/15 06:54:20;;;;;;;12.38;5.32;;;;;;;35.97;26.59;94823.59;5032200;28;20208;-70
2022/09/15 06:56:47;;;;;;;14.70;5.97;;;;;;;36.31;25.49;94833.75;5032104;28;20575;-67
2022/09/15 06:59:14;;;;;;;13.77;5.90;;;;;;;36.36;25.19;94830.47;5031643;28;20199;-68
2022/09/15 07:01:41;;;;;;;15.13;9.35;;;;;;;37.01;24.78;94834.34;5031837;28;20200;-68
2022/09/15 07:04:08;;;;;;;13.60;7.68;;;;;;;36.81;24.82;94833.75;5031276;28;20735;-70
2022/09/15 07:06:39;;;;;;;9.70;6.72;;;;;;;37.00;24.62;94829.28;5031952;28;20276;-68
2022/09/15 07:09:06;;;;;;;20.27;11.90;;;;;;;37.27;24.14;94843.06;5031994;28;20204;-67
2022/09/15 07:11:33;;;;;;;12.40;9.40;;;;;;;37.20;24.28;94851.09;5031530;28;20663;-68
2022/09/15 07:14:00;;;;;;;14.68;6.72;;;;;;;37.92;23.59;94853.88;5032017;28;20202;-68
2022/09/15 07:16:27;;;;;;;10.93;4.70;;;;;;;39.11;22.09;94858.97;5031335;28;20560;-67
2022/09/15 07:18:55;;;;;;;6.43;4.25;;;;;;;38.56;21.99;94855.00;5031322;28;20196;-67
2022/09/15 07:21:22;;;;;;;9.38;5.10;;;;;;;38.12;23.04;94863.19;5031942;28;20192;-67
2022/09/15 07:23:50;;;;;;;8.90;5.80;;;;;;;38.24;22.73;94876.53;5031272;28;20207;-69
2022/09/15 07:26:19;;;;;;;7.38;5.13;;;;;;;37.75;23.21;94875.75;5033144;28;20227;-68
2022/09/15 07:28:49;;;;;;;15.25;6.10;;;;;;;37.67;23.43;94877.88;5034888;28;20207;-68
2022/09/15 07:31:18;;;;;;;6.38;4.90;;;;;;;37.75;23.42;94873.09;5035140;28;20196;-68
2022/09/15 07:33:45;;;;;;;9.95;5.00;;;;;;;38.05;22.87;94869.63;5035245;28;20268;-68
2022/09/15 07:36:13;;;;;;;11.07;4.47;;;;;;;37.70;23.18;94875.59;5035279;28;20192;-68
2022/09/15 07:38:42;;;;;;;10.85;4.55;;;;;;;37.48;23.49;94874.41;5034835;28;20200;-69
2022/09/15 07:41:12;;;;;;;7.03;3.88;;;;;;;37.32;23.67;94878.50;5034584;28;20254;-69
2022/09/15 07:43:39;;;;;;;6.28;3.60;;;;;;;37.12;24.38;94865.41;5034769;28;20253;-68
2022/09/15 07:46:06;;;;;;;8.82;4.72;;;;;;;36.62;25.12;94863.84;5034467;28;20674;-69
2022/09/15 07:48:33;;;;;;;19.27;3.95;;;;;;;35.86;25.60;94861.31;5034471;28;20196;-68
2022/09/15 07:51:00;;;;;;;6.72;3.03;;;;;;;35.33;26.07;94862.31;5034783;28;20200;-69
2022/09/15 07:53:28;;;;;;;3.90;3.60;;;;;;;34.22;27.95;94861.34;5034650;28;20596;-69
2022/09/15 07:55:56;;;;;;;5.97;2.80;;;;;;;34.72;26.83;94869.69;5034783;28;20203;-68
2022/09/15 07:58:24;;;;;;;5.68;3.40;;;;;;;33.42;29.38;94868.19;5034038;28;20780;-68
2022/09/15 08:00:51;;;;;;;6.68;3.83;;;;;;;32.68;30.18;94867.13;5034674;28;20206;-68
2022/09/15 08:03:18;;;;;;;4.32;3.78;;;;;;;31.28;32.44;94865.88;5034083;28;20250;-68
2022/09/15 08:05:44;;;;;;;12.68;3.08;;;;;;;31.65;31.90;94857.84;5034255;28;20655;-69
2022/09/15 08:08:11;;;;;;;7.18;3.15;;;;;;;32.27;31.25;94869.63;5034102;28;20277;-69
2022/09/15 08:10:39;;;;;;;8.93;3.47;;;;;;;32.85;30.72;94865.06;5034139;28;20203;-68
2022/09/15 08:13:06;;;;;;;9.85;3.75;;;;;;;33.04;30.93;94856.44;5034962;28;20208;-69
2022/09/15 08:15:37;;;;;;;6.30;3.10;;;;;;;32.29;31.66;94852.66;5034433;28;20253;-67
2022/09/15 08:18:05;;;;;;;9.70;4.30;;;;;;;32.63;31.52;94862.44;5034815;28;20282;-67
2022/09/15 08:20:32;;;;;;;9.25;4.40;;;;;;;32.63;31.26;94845.84;5034083;28;20692;-70
2022/09/15 08:22:59;;;;;;;8.45;3.72;;;;;;;31.45;33.15;94841.03;5034670;28;20203;-69
2022/09/15 08:25:25;;;;;;;11.68;4.07;;;;;;;31.24;33.70;94846.22;5034042;28;20266;-68
2022/09/15 08:27:53;;;;;;;8.90;3.38;;;;;;;30.73;34.53;94840.88;5033667;28;20300;-70
2022/09/15 08:30:19;;;;;;;13.65;8.18;;;;;;;30.29;34.17;94828.50;5034157;28;20199;-67
2022/09/15 08:32:48;;;;;;;9.70;4.07;;;;;;;30.31;34.95;94836.19;5033967;28;20613;-68
2022/09/15 08:35:15;;;;;;;8.75;3.95;;;;;;;30.06;34.78;94835.56;5033890;28;20254;-67
2022/09/15 08:37:42;;;;;;;5.28;3.95;;;;;;;29.95;36.45;94826.28;5033462;28;20199;-69
2022/09/15 08:40:16;;;;;;;11.38;4.10;;;;;;;29.81;36.02;94829.66;5033717;28;20196;-68
2022/09/15 08:42:46;;;;;;;7.18;3.60;;;;;;;29.87;35.31;94822.94;5033134;28;20206;-68
2022/09/15 08:45:20;;;;;;;6.45;4.00;;;;;;;29.61;35.14;94834.56;5033244;28;20203;-67
2022/09/15 08:47:54;;;;;;;7.70;4.28;;;;;;;29.16;36.60;94818.72;5033655;28;20779;-67
2022/09/15 08:50:26;;;;;;;9.20;4.47;;;;;;;29.03;36.82;94827.94;5033378;28;20203;-67
2022/09/15 08:52:58;;;;;;;11.82;4.30;;;;;;;28.97;36.84;94817.31;5033412;28;20200;-67
2022/09/15 08:55:37;;;;;;;8.68;4.60;;;;;;;28.71;37.32;94815.75;5033673;28;20204;-68
2022/09/15 08:58:05;;;;;;;7.15;3.70;;;;;;;28.86;37.38;94818.53;5033431;28;20249;-68
2022/09/15 09:00:33;;;;;;;13.77;4.88;;;;;;;28.77;36.97;94814.25;5034110;28;20219;-67
2022/09/15 09:03:38;;;;;;;9.20;5.40;;;;;;;28.84;38.53;94810.03;5033051;28;20667;-67
2022/09/15 09:06:16;;;;;;;8.52;4.93;;;;;;;28.95;37.78;94795.78;5032861;28;20273;-67
2022/09/15 09:09:03;;;;;;;5.85;4.00;;;;;;;28.90;37.45;94798.91;5033332;28;20191;-69
2022/09/15 09:11:41;;;;;;;14.23;4.50;;;;;;;28.78;38.17;94795.78;5033016;28;20208;-66
2022/09/15 09:14:19;;;;;;;9.77;4.70;;;;;;;29.40;37.21;94795.09;5032991;28;20199;-70
2022/09/15 09:17:10;;;;;;;10.02;4.43;;;;;;;29.48;37.27;94787.16;5032586;28;20202;-68
2022/09/15 09:20:02;;;;;;;6.20;3.55;;;;;;;29.70;36.44;94785.53;5032900;28;20203;-69
2022/09/15 09:22:33;;;;;;;9.70;4.78;;;;;;;29.87;36.73;94781.81;5033176;28;20206;-69
2022/09/15 09:25:02;;;;;;;11.23;3.92;;;;;;;29.29;36.88;94783.16;5032997;28;20200;-69
2022/09/15 09:27:33;;;;;;;10.50;4.25;;;;;;;29.18;37.69;94777.50;5033003;28;20223;-68
2022/09/15 09:30:07;;;;;;;5.40;3.95;;;;;;;29.28;37.64;94770.25;5032996;28;20290;-68
2022/09/15 09:32:40;;;;;;;7.20;4.65;;;;;;;29.69;36.86;94762.97;5032912;28;20196;-68
2022/09/15 09:35:18;;;;;;;10.63;3.90;;;;;;;29.83;35.87;94766.63;5032924;28;20306;-70
2022/09/15 09:37:45;;;;;;;12.43;4.38;;;;;;;29.70;36.01;94754.91;5032683;28;20669;-67
2022/09/15 09:40:14;;;;;;;6.13;4.40;;;;;;;29.59;35.74;94763.19;5032541;28;20199;-66
2022/09/15 09:42:43;;;;;;;9.48;4.47;;;;;;;29.39;37.25;94762.00;5032550;28;20206;-68
2022/09/15 09:45:12;;;;;;;11.68;3.90;;;;;;;29.67;36.97;94776.25;5032691;28;20578;-69
2022/09/15 09:47:41;;;;;;;11.32;4.28;;;;;;;29.45;36.00;94771.78;5032069;28;20289;-68
2022/09/15 09:50:38;;;;;;;13.55;5.10;;;;;;;29.44;36.56;94775.44;5031874;28;20200;-68
2022/09/15 09:53:27;;;;;;;7.40;4.22;;;;;;;29.53;36.42;94771.75;5031779;28;20585;-68
2022/09/15 09:55:55;;;;;;;15.25;5.15;;;;;;;29.87;36.37;94775.75;5030212;28;20295;-67
2022/09/15 09:58:24;;;;;;;11.88;3.53;;;;;;;30.15;35.87;94761.16;5032420;28;20204;-67
2022/09/15 10:00:52;;;;;;;8.25;4.35;;;;;;;30.00;36.12;94765.53;5032139;28;20226;-67
2022/09/15 10:03:21;;;;;;;11.93;3.75;;;;;;;29.75;36.65;94762.25;5031618;28;20554;-67
2022/09/15 10:06:03;;;;;;;8.98;4.03;;;;;;;29.72;36.82;94752.94;5031939;28;20281;-69
2022/09/15 10:08:31;;;;;;;12.18;3.70;;;;;;;29.53;37.03;94753.41;5031766;28;20223;-69
2022/09/15 10:11:02;;;;;;;12.60;3.40;;;;;;;29.53;36.36;94750.81;5031997;28;20249;-69
2022/09/15 10:13:29;;;;;;;6.97;4.10;;;;;;;29.56;36.08;94750.47;5031970;28;20223;-67
2022/09/15 10:15:59;;;;;;;9.85;3.85;;;;;;;29.69;36.09;94752.50;5033344;28;20200;-67
2022/09/15 10:18:33;;;;;;;11.40;4.30;;;;;;;29.65;35.90;94740.75;5032986;28;20199;-69
2022/09/15 10:21:02;;;;;;;12.52;3.70;;;;;;;29.89;35.99;94739.72;5032907;28;20257;-66
2022/09/15 10:23:31;;;;;;;7.38;3.70;;;;;;;30.14;35.21;94740.34;5034103;28;20258;-68
2022/09/15 10:26:20;;;;;;;9.82;3.70;;;;;;;30.13;35.45;94743.97;5032437;28;20196;-67
2022/09/15 10:29:14;;;;;;;20.20;10.43;;;;;;;30.31;34.79;94726.88;5032920;28;20322;-68
2022/09/15 10:31:42;;;;;;;8.10;3.78;;;;;;;30.70;34.61;94721.38;5033640;28;20200;-70
2022/09/15 10:34:27;;;;;;;7.63;3.70;;;;;;;30.95;33.41;94719.25;5032253;28;20253;-72
2022/09/15 10:37:01;;;;;;;8.00;3.40;;;;;;;31.03;32.85;94711.28;5031880;28;20253;-69
2022/09/15 10:39:35;;;;;;;9.05;3.75;;;;;;;31.09;32.19;94720.25;5031863;28;20202;-69
2022/09/15 10:42:12;;;;;;;9.27;3.42;;;;;;;31.13;32.51;94723.34;5031835;28;20203;-71
2022/09/15 10:44:51;;;;;;;9.25;4.05;;;;;;;31.42;32.33;94720.63;5031486;28;20628;-68
2022/09/15 10:47:28;;;;;;;10.98;6.57;;;;;;;31.54;32.50;94721.75;5031834;28;20238;-68
2022/09/15 10:50:07;;;;;;;11.55;6.18;;;;;;;31.80;32.68;94718.56;5031547;28;20192;-66
2022/09/15 10:52:47;;;;;;;8.68;3.85;;;;;;;32.11;31.90;94711.13;5031910;28;20207;-66
2022/09/15 10:55:31;;;;;;;9.77;3.88;;;;;;;32.30;31.52;94700.94;5031309;28;20253;-68
2022/09/15 10:58:18;;;;;;;13.70;3.97;;;;;;;31.96;30.11;94701.69;5031107;28;20669;-69
2022/09/15 11:00:56;;;;;;;9.60;3.10;;;;;;;31.65;30.88;94700.22;5031231;28;20334;-67
2022/09/15 11:03:43;;;;;;;12.50;4.30;;;;;;;31.57;31.42;94692.47;5036526;28;20589;-69
2022/09/15 11:06:19;;;;;;;9.55;3.80;;;;;;;31.39;31.92;94689.47;5071246;28;20276;-69
2022/09/15 11:09:06;;;;;;;9.18;3.20;;;;;;;31.22;30.52;94688.09;5071357;28;20221;-68
2022/09/15 11:11:48;;;;;;;11.52;3.75;;;;;;;31.18;31.65;94674.53;5071551;28;20263;-68
2022/09/15 11:14:41;;;;;;;7.22;2.72;;;;;;;31.07;31.69;94670.56;5071735;28;20260;-68
2022/09/15 11:17:25;;;;;;;13.80;3.90;;;;;;;31.11;32.44;94677.09;5071120;28;20198;-70
2022/09/15 11:20:11;;;;;;;5.97;3.05;;;;;;;30.95;31.47;94668.59;5070712;28;20202;-67
2022/09/15 11:22:42;;;;;;;6.30;2.05;;;;;;;30.86;31.37;94673.16;5071070;28;20256;-67
2022/09/15 11:25:15;;;;;;;9.18;2.65;;;;;;;30.84;31.38;94669.91;5071405;28;20202;-66
2022/09/15 11:27:47;;;;;;;7.47;3.08;;;;;;;30.91;32.05;94665.56;5071152;28;20222;-66
2022/09/15 11:30:19;;;;;;;18.83;4.88;;;;;;;31.23;31.45;94666.09;5070948;28;20260;-69
2022/09/15 11:32:52;;;;;;;14.48;3.40;;;;;;;31.50;30.95;94661.88;5071234;28;20289;-68
2022/09/15 11:35:33;;;;;;;4.85;3.00;;;;;;;31.92;30.82;94659.25;5070826;28;20202;-68
2022/09/15 11:38:13;;;;;;;8.30;2.75;;;;;;;32.09;30.60;94665.00;5070658;28;20572;-68
2022/09/15 11:40:47;;;;;;;11.45;4.30;;;;;;;32.25;29.61;94659.44;5070654;28;20703;-68
2022/09/15 11:43:18;;;;;;;13.65;5.75;;;;;;;32.25;29.23;94656.81;5070826;28;20202;-69
2022/09/15 11:45:51;;;;;;;8.05;3.80;;;;;;;32.27;29.08;94657.44;5070956;28;20283;-67